首页
METAR-TAF:

METAR-TAF

机场 :

萨尔茨堡沃尔夫冈·阿马多伊斯·莫扎特机场

萨尔茨堡, 奥地利

纬度: 47-48N, 经度: 013-00E, 海拔: 430米

当前天气观测

该预报发布于34分钟前的16:50 UTC
风速6节,风向,在西北东北之间变化
温度 21°C
湿度 40%
气压 1019 hPa
能见度10公里或以上
少量云层高于6000英尺

METAR: LOWS 011650Z 01006KT 320V050 9999 FEW060 21/07 Q1019 NOSIG

时间: 19:24 (17:24 UTC)

预报

该预报发布于6小时和9分钟前的11:15 UTC
预报有效从01日的 12点(UTC)到 02日的 12点(UTC)
风速8节,风向北转东北
能见度10公里或以上
少量云层高于6000英尺
成为
从 01日的 17点(UTC)到 01日的 19点(UTC)
风速5节,风向南转南东
成为
从 02日的 07点(UTC)到 02日的 09点(UTC)
风速6节,风向

TAF: LOWS 011115Z 0112/0212 03008KT 9999 FEW060 TX21/0212Z TN09/0203Z BECMG 0117/0119 15005KT BECMG 0207/0209 01006KT

超过4000个机场的气象观测和天气预报(METAR&TAF报告)。

可查询的气象台以黄色和红色小点在地图上表示。

将鼠标移到小点上方,可查看气象台名称。

然后点击查看天气观测和预报。

如需切换地图:点击带黑十字的绿色按钮放大地图;点击带横线的绿色按钮缩小地图;或者点击绿色箭头查看邻近地区的地图。


METAR-TAF: